sensor_id;sensor_type;location;lat;lon;timestamp;pressure;altitude;pressure_sealevel;temperature;humidity
10064;BME280;5071;52.360;13.134;2022-10-31T00:04:44;101444.06;;;8.48;100.00
10064;BME280;5071;52.360;13.134;2022-10-31T00:09:46;101456.41;;;8.44;100.00
10064;BME280;5071;52.360;13.134;2022-10-31T00:14:50;101452.75;;;8.33;100.00
10064;BME280;5071;52.360;13.134;2022-10-31T00:19:52;101452.75;;;8.33;100.00
10064;BME280;5071;52.360;13.134;2022-10-31T00:24:54;101456.34;;;8.41;100.00
10064;BME280;5071;52.360;13.134;2022-10-31T00:29:57;101467.94;;;8.51;100.00
10064;BME280;5071;52.360;13.134;2022-10-31T00:34:59;101474.09;;;8.51;100.00
10064;BME280;5071;52.360;13.134;2022-10-31T00:40:01;101471.44;;;8.50;100.00
10064;BME280;5071;52.360;13.134;2022-10-31T00:45:06;101477.47;;;8.38;100.00
10064;BME280;5071;52.360;13.134;2022-10-31T00:50:08;101478.34;;;8.37;100.00
10064;BME280;5071;52.360;13.134;2022-10-31T00:55:10;101477.47;;;8.38;100.00
10064;BME280;5071;52.360;13.134;2022-10-31T01:00:14;101489.88;;;8.42;100.00
10064;BME280;5071;52.360;13.134;2022-10-31T01:05:17;101483.66;;;8.35;100.00
10064;BME280;5071;52.360;13.134;2022-10-31T01:10:19;101494.22;;;8.37;100.00
10064;BME280;5071;52.360;13.134;2022-10-31T01:15:23;101487.19;;;8.37;100.00
10064;BME280;5071;52.360;13.134;2022-10-31T01:20:25;101490.59;;;8.26;100.00
10064;BME280;5071;52.360;13.134;2022-10-31T01:25:27;101496.81;;;8.31;100.00
10064;BME280;5071;52.360;13.134;2022-10-31T01:30:30;101501.09;;;8.18;100.00
10064;BME280;5071;52.360;13.134;2022-10-31T01:35:33;101492.16;;;8.04;100.00
10064;BME280;5071;52.360;13.134;2022-10-31T01:40:36;101501.91;;;8.09;100.00
10064;BME280;5071;52.360;13.134;2022-10-31T01:45:40;101502.69;;;8.01;100.00
10064;BME280;5071;52.360;13.134;2022-10-31T01:50:45;101498.22;;;7.95;100.00
10064;BME280;5071;52.360;13.134;2022-10-31T01:55:49;101503.56;;;7.98;100.00
10064;BME280;5071;52.360;13.134;2022-10-31T02:00:55;101499.09;;;7.95;100.00
10064;BME280;5071;52.360;13.134;2022-10-31T02:06:11;101498.19;;;7.92;100.00
10064;BME280;5071;52.360;13.134;2022-10-31T02:11:15;101493.75;;;7.88;100.00
10064;BME280;5071;52.360;13.134;2022-10-31T02:16:18;101498.06;;;7.83;100.00
10064;BME280;5071;52.360;13.134;2022-10-31T02:21:24;101494.47;;;7.74;100.00
10064;BME280;5071;52.360;13.134;2022-10-31T02:32:12;101502.50;;;7.82;100.00
10064;BME280;5071;52.360;13.134;2022-10-31T02:37:21;101515.50;;;7.65;100.00
10064;BME280;5071;52.360;13.134;2022-10-31T02:42:32;101511.94;;;7.62;100.00
10064;BME280;5071;52.360;13.134;2022-10-31T02:47:37;101513.88;;;7.76;100.00
10064;BME280;5071;52.360;13.134;2022-10-31T02:52:40;101519.94;;;7.69;100.00
10064;BME280;5071;52.360;13.134;2022-10-31T02:57:42;101528.75;;;7.67;100.00
10064;BME280;5071;52.360;13.134;2022-10-31T03:02:54;101526.00;;;7.59;100.00
10064;BME280;5071;52.360;13.134;2022-10-31T03:08:09;101531.19;;;7.50;100.00
10064;BME280;5071;52.360;13.134;2022-10-31T03:13:21;101535.47;;;7.40;100.00
10064;BME280;5071;52.360;13.134;2022-10-31T03:18:29;101538.06;;;7.38;100.00
10064;BME280;5071;52.360;13.134;2022-10-31T03:23:35;101539.84;;;7.39;100.00
10064;BME280;5071;52.360;13.134;2022-10-31T03:28:41;101545.03;;;7.33;100.00
10064;BME280;5071;52.360;13.134;2022-10-31T03:33:47;101557.34;;;7.31;100.00
10064;BME280;5071;52.360;13.134;2022-10-31T03:38:52;101554.44;;;7.14;100.00
10064;BME280;5071;52.360;13.134;2022-10-31T03:43:57;101550.84;;;7.09;100.00
10064;BME280;5071;52.360;13.134;2022-10-31T03:49:03;101558.72;;;7.05;100.00
10064;BME280;5071;52.360;13.134;2022-10-31T03:54:09;101572.81;;;7.07;100.00
10064;BME280;5071;52.360;13.134;2022-10-31T03:59:16;101577.94;;;6.97;100.00
10064;BME280;5071;52.360;13.134;2022-10-31T04:04:21;101568.22;;;6.93;100.00
10064;BME280;5071;52.360;13.134;2022-10-31T04:09:25;101572.72;;;7.00;100.00
10064;BME280;5071;52.360;13.134;2022-10-31T04:14:29;101578.09;;;7.07;100.00
10064;BME280;5071;52.360;13.134;2022-10-31T04:19:34;101578.81;;;6.98;100.00
10064;BME280;5071;52.360;13.134;2022-10-31T04:24:37;101577.06;;;6.97;100.00
10064;BME280;5071;52.360;13.134;2022-10-31T04:29:40;101590.22;;;6.95;100.00
10064;BME280;5071;52.360;13.134;2022-10-31T04:34:48;101587.47;;;6.88;100.00
10064;BME280;5071;52.360;13.134;2022-10-31T04:39:50;101594.50;;;6.89;100.00
10064;BME280;5071;52.360;13.134;2022-10-31T04:44:52;101592.88;;;6.95;100.00
10064;BME280;5071;52.360;13.134;2022-10-31T04:49:56;101597.31;;;6.98;100.00
10064;BME280;5071;52.360;13.134;2022-10-31T04:54:58;101600.69;;;6.89;100.00
10064;BME280;5071;52.360;13.134;2022-10-31T05:00:00;101598.88;;;6.85;100.00
10064;BME280;5071;52.360;13.134;2022-10-31T05:05:04;101597.16;;;6.89;100.00
10064;BME280;5071;52.360;13.134;2022-10-31T05:10:07;101591.81;;;6.84;100.00
10064;BME280;5071;52.360;13.134;2022-10-31T05:15:09;101600.72;;;6.92;100.00
10064;BME280;5071;52.360;13.134;2022-10-31T05:20:13;101603.44;;;6.95;100.00
10064;BME280;5071;52.360;13.134;2022-10-31T05:25:17;101600.72;;;6.91;100.00
10064;BME280;5071;52.360;13.134;2022-10-31T05:30:21;101599.81;;;6.90;100.00
10064;BME280;5071;52.360;13.134;2022-10-31T05:35:26;101602.59;;;6.96;100.00
10064;BME280;5071;52.360;13.134;2022-10-31T05:40:29;101609.63;;;6.97;100.00
10064;BME280;5071;52.360;13.134;2022-10-31T05:45:30;101604.41;;;7.00;100.00
10064;BME280;5071;52.360;13.134;2022-10-31T05:50:34;101611.53;;;7.06;100.00
10064;BME280;5071;52.360;13.134;2022-10-31T05:55:36;101613.38;;;7.12;100.00
10064;BME280;5071;52.360;13.134;2022-10-31T06:00:38;101620.41;;;7.13;100.00
10064;BME280;5071;52.360;13.134;2022-10-31T06:05:41;101622.28;;;7.20;100.00
10064;BME280;5071;52.360;13.134;2022-10-31T06:10:43;101633.00;;;7.29;100.00
10064;BME280;5071;52.360;13.134;2022-10-31T06:15:45;101627.81;;;7.35;100.00
10064;BME280;5071;52.360;13.134;2022-10-31T06:20:48;101642.09;;;7.48;100.00
10064;BME280;5071;52.360;13.134;2022-10-31T06:25:50;101640.59;;;7.64;100.00
10064;BME280;5071;52.360;13.134;2022-10-31T06:30:52;101635.44;;;7.73;100.00
10064;BME280;5071;52.360;13.134;2022-10-31T06:35:56;101635.59;;;7.87;100.00
10064;BME280;5071;52.360;13.134;2022-10-31T06:41:01;101651.72;;;8.07;100.00
10064;BME280;5071;52.360;13.134;2022-10-31T06:46:05;101652.91;;;8.32;100.00
10064;BME280;5071;52.360;13.134;2022-10-31T06:51:08;101663.75;;;8.55;100.00
10064;BME280;5071;52.360;13.134;2022-10-31T06:56:10;101668.50;;;8.87;100.00
10064;BME280;5071;52.360;13.134;2022-10-31T07:01:12;101677.56;;;9.11;100.00
10064;BME280;5071;52.360;13.134;2022-10-31T07:06:16;101685.66;;;9.32;100.00
10064;BME280;5071;52.360;13.134;2022-10-31T07:11:18;101677.94;;;9.63;100.00
10064;BME280;5071;52.360;13.134;2022-10-31T07:16:20;101672.94;;;10.19;100.00
10064;BME280;5071;52.360;13.134;2022-10-31T07:21:24;101674.94;;;10.87;100.00
10064;BME280;5071;52.360;13.134;2022-10-31T07:26:26;101670.47;;;11.96;100.00
10064;BME280;5071;52.360;13.134;2022-10-31T07:31:27;101673.69;;;12.62;100.00
10064;BME280;5071;52.360;13.134;2022-10-31T07:36:31;101684.13;;;12.95;100.00
10064;BME280;5071;52.360;13.134;2022-10-31T07:41:33;101693.78;;;13.14;100.00
10064;BME280;5071;52.360;13.134;2022-10-31T07:46:34;101687.25;;;13.55;97.75
10064;BME280;5071;52.360;13.134;2022-10-31T07:51:37;101687.03;;;13.74;95.80
10064;BME280;5071;52.360;13.134;2022-10-31T07:56:47;101698.56;;;13.79;95.48
10064;BME280;5071;52.360;13.134;2022-10-31T08:01:49;101711.25;;;13.52;96.13
10064;BME280;5071;52.360;13.134;2022-10-31T08:06:52;101714.78;;;13.56;95.67
10064;BME280;5071;52.360;13.134;2022-10-31T08:11:55;101715.56;;;13.67;95.30
10064;BME280;5071;52.360;13.134;2022-10-31T08:16:56;101719.09;;;13.71;94.92
10064;BME280;5071;52.360;13.134;2022-10-31T08:22:00;101717.38;;;13.64;94.86
10064;BME280;5071;52.360;13.134;2022-10-31T08:27:02;101708.50;;;13.63;94.95
10064;BME280;5071;52.360;13.134;2022-10-31T08:32:04;101713.69;;;13.78;95.22
10064;BME280;5071;52.360;13.134;2022-10-31T08:37:08;101718.75;;;14.03;94.77
10064;BME280;5071;52.360;13.134;2022-10-31T08:42:10;101725.53;;;14.33;93.95
10064;BME280;5071;52.360;13.134;2022-10-31T08:47:12;101729.06;;;14.37;92.52
10064;BME280;5071;52.360;13.134;2022-10-31T08:52:15;101725.34;;;14.49;90.74
10064;BME280;5071;52.360;13.134;2022-10-31T08:57:17;101732.78;;;14.22;92.41
10064;BME280;5071;52.360;13.134;2022-10-31T09:02:19;101741.94;;;14.01;93.70
10064;BME280;5071;52.360;13.134;2022-10-31T09:07:23;101745.44;;;14.08;93.57
10064;BME280;5071;52.360;13.134;2022-10-31T09:12:25;101727.22;;;14.42;92.66
10064;BME280;5071;52.360;13.134;2022-10-31T09:17:27;101722.53;;;15.22;90.31
10064;BME280;5071;52.360;13.134;2022-10-31T09:22:31;101729.28;;;15.46;86.81
10064;BME280;5071;52.360;13.134;2022-10-31T09:27:33;101738.56;;;15.79;86.39
10064;BME280;5071;52.360;13.134;2022-10-31T09:32:35;101754.09;;;15.55;86.63
10064;BME280;5071;52.360;13.134;2022-10-31T09:37:38;101752.41;;;15.50;86.95
10064;BME280;5071;52.360;13.134;2022-10-31T09:42:48;101751.97;;;15.22;88.60
10064;BME280;5071;52.360;13.134;2022-10-31T09:48:02;101758.34;;;16.19;86.98
10064;BME280;5071;52.360;13.134;2022-10-31T09:53:23;101756.16;;;16.83;81.44
10064;BME280;5071;52.360;13.134;2022-10-31T09:58:30;101752.44;;;17.29;78.45
10064;BME280;5071;52.360;13.134;2022-10-31T10:03:42;101748.16;;;18.25;75.78
10064;BME280;5071;52.360;13.134;2022-10-31T10:08:47;101737.31;;;21.61;62.17
10064;BME280;5071;52.360;13.134;2022-10-31T10:14:01;101741.69;;;23.03;56.43
10064;BME280;5071;52.360;13.134;2022-10-31T10:19:29;101736.81;;;23.47;55.66
10064;BME280;5071;52.360;13.134;2022-10-31T10:24:44;101733.50;;;26.17;47.45
10064;BME280;5071;52.360;13.134;2022-10-31T10:29:56;101730.28;;;26.11;47.36
10064;BME280;5071;52.360;13.134;2022-10-31T10:35:03;101733.09;;;23.67;53.96
10064;BME280;5071;52.360;13.134;2022-10-31T10:40:16;101726.00;;;26.50;46.61
10064;BME280;5071;52.360;13.134;2022-10-31T10:45:20;101727.66;;;26.09;47.20
10064;BME280;5071;52.360;13.134;2022-10-31T10:50:25;101721.78;;;29.34;40.96
10064;BME280;5071;52.360;13.134;2022-10-31T10:55:36;101711.69;;;24.14;51.68
10064;BME280;5071;52.360;13.134;2022-10-31T11:00:43;101713.31;;;25.91;48.40
10064;BME280;5071;52.360;13.134;2022-10-31T11:05:47;101717.06;;;26.48;47.40
10064;BME280;5071;52.360;13.134;2022-10-31T11:10:58;101706.28;;;26.32;46.11
10064;BME280;5071;52.360;13.134;2022-10-31T11:16:04;101711.41;;;25.01;50.66
10064;BME280;5071;52.360;13.134;2022-10-31T11:21:27;101712.25;;;21.99;58.08
10064;BME280;5071;52.360;13.134;2022-10-31T11:26:31;101695.84;;;20.27;65.85
10064;BME280;5071;52.360;13.134;2022-10-31T11:31:34;101684.06;;;20.29;65.68
10064;BME280;5071;52.360;13.134;2022-10-31T11:36:38;101690.09;;;19.87;69.13
10064;BME280;5071;52.360;13.134;2022-10-31T11:41:43;101690.03;;;19.89;67.73
10064;BME280;5071;52.360;13.134;2022-10-31T11:46:47;101680.81;;;19.96;68.07
10064;BME280;5071;52.360;13.134;2022-10-31T11:51:53;101673.19;;;19.57;69.69
10064;BME280;5071;52.360;13.134;2022-10-31T11:56:57;101672.47;;;19.78;68.49
10064;BME280;5071;52.360;13.134;2022-10-31T12:02:00;101668.81;;;19.28;71.51
10064;BME280;5071;52.360;13.134;2022-10-31T12:07:03;101665.69;;;19.40;70.55
10064;BME280;5071;52.360;13.134;2022-10-31T12:12:40;101668.56;;;19.60;70.63
10064;BME280;5071;52.360;13.134;2022-10-31T12:17:48;101669.88;;;18.95;73.07
10064;BME280;5071;52.360;13.134;2022-10-31T12:22:59;101665.50;;;19.19;72.92
10064;BME280;5071;52.360;13.134;2022-10-31T12:28:14;101663.56;;;18.96;73.51
10064;BME280;5071;52.360;13.134;2022-10-31T12:33:39;101658.75;;;18.78;73.97
10064;BME280;5071;52.360;13.134;2022-10-31T12:38:55;101643.25;;;18.86;74.62
10064;BME280;5071;52.360;13.134;2022-10-31T12:44:06;101642.28;;;18.89;74.73
10064;BME280;5071;52.360;13.134;2022-10-31T12:49:24;101640.50;;;18.59;75.74
10064;BME280;5071;52.360;13.134;2022-10-31T12:54:39;101642.56;;;18.51;76.17
10064;BME280;5071;52.360;13.134;2022-10-31T12:59:52;101643.75;;;18.41;76.39
10064;BME280;5071;52.360;13.134;2022-10-31T13:04:57;101634.81;;;18.40;76.69
10064;BME280;5071;52.360;13.134;2022-10-31T13:10:03;101625.59;;;18.49;75.95
10064;BME280;5071;52.360;13.134;2022-10-31T13:15:15;101630.78;;;17.94;78.44
10064;BME280;5071;52.360;13.134;2022-10-31T13:20:23;101630.19;;;17.83;78.65
10064;BME280;5071;52.360;13.134;2022-10-31T13:25:29;101628.44;;;17.49;80.33
10064;BME280;5071;52.360;13.134;2022-10-31T13:30:37;101625.22;;;17.36;81.63
10064;BME280;5071;52.360;13.134;2022-10-31T13:35:47;101631.84;;;17.56;80.92
10064;BME280;5071;52.360;13.134;2022-10-31T13:40:55;101623.94;;;17.17;82.20
10064;BME280;5071;52.360;13.134;2022-10-31T13:46:00;101625.44;;;16.91;83.53
10064;BME280;5071;52.360;13.134;2022-10-31T13:51:04;101616.69;;;16.45;85.13
10064;BME280;5071;52.360;13.134;2022-10-31T13:56:25;101610.22;;;16.13;87.59
10064;BME280;5071;52.360;13.134;2022-10-31T14:01:31;101615.28;;;15.85;89.04
10064;BME280;5071;52.360;13.134;2022-10-31T14:06:40;101611.50;;;15.50;90.63
10064;BME280;5071;52.360;13.134;2022-10-31T14:11:46;101607.34;;;15.34;92.21
10064;BME280;5071;52.360;13.134;2022-10-31T14:16:55;101604.09;;;15.16;93.35
10064;BME280;5071;52.360;13.134;2022-10-31T14:21:58;101607.66;;;15.15;93.54
10064;BME280;5071;52.360;13.134;2022-10-31T14:27:02;101603.59;;;14.91;95.03
10064;BME280;5071;52.360;13.134;2022-10-31T14:32:18;101599.50;;;14.70;96.52
10064;BME280;5071;52.360;13.134;2022-10-31T14:37:43;101601.44;;;14.56;97.49
10064;BME280;5071;52.360;13.134;2022-10-31T14:43:14;101598.00;;;14.51;98.41
10064;BME280;5071;52.360;13.134;2022-10-31T14:48:40;101592.59;;;14.52;98.02
10064;BME280;5071;52.360;13.134;2022-10-31T14:53:47;101593.56;;;14.47;98.13
10064;BME280;5071;52.360;13.134;2022-10-31T14:58:50;101589.22;;;14.39;98.55
10064;BME280;5071;52.360;13.134;2022-10-31T15:03:55;101587.63;;;14.26;99.35
10064;BME280;5071;52.360;13.134;2022-10-31T15:09:21;101581.69;;;14.06;100.00
10064;BME280;5071;52.360;13.134;2022-10-31T15:14:26;101579.97;;;14.00;100.00
10064;BME280;5071;52.360;13.134;2022-10-31T15:19:30;101564.94;;;13.94;100.00
10064;BME280;5071;52.360;13.134;2022-10-31T15:24:36;101573.88;;;13.90;100.00
10064;BME280;5071;52.360;13.134;2022-10-31T15:29:47;101569.41;;;13.92;100.00
10064;BME280;5071;52.360;13.134;2022-10-31T15:34:52;101566.69;;;13.98;100.00
10064;BME280;5071;52.360;13.134;2022-10-31T15:39:54;101562.44;;;13.80;100.00
10064;BME280;5071;52.360;13.134;2022-10-31T15:45:00;101563.47;;;13.70;100.00
10064;BME280;5071;52.360;13.134;2022-10-31T15:50:18;101561.63;;;13.74;100.00
10064;BME280;5071;52.360;13.134;2022-10-31T15:55:23;101557.25;;;13.68;100.00
10064;BME280;5071;52.360;13.134;2022-10-31T16:00:28;101560.94;;;13.56;100.00
10064;BME280;5071;52.360;13.134;2022-10-31T16:05:36;101558.34;;;13.53;100.00
10064;BME280;5071;52.360;13.134;2022-10-31T16:10:39;101558.28;;;13.56;100.00
10064;BME280;5071;52.360;13.134;2022-10-31T16:15:48;101561.03;;;13.52;100.00
10064;BME280;5071;52.360;13.134;2022-10-31T16:21:06;101556.53;;;13.55;100.00
10064;BME280;5071;52.360;13.134;2022-10-31T16:26:13;101556.44;;;13.63;100.00
10064;BME280;5071;52.360;13.134;2022-10-31T16:31:27;101555.59;;;13.61;100.00
10064;BME280;5071;52.360;13.134;2022-10-31T16:36:32;101556.59;;;13.49;100.00
10064;BME280;5071;52.360;13.134;2022-10-31T16:41:39;101547.50;;;13.66;100.00
10064;BME280;5071;52.360;13.134;2022-10-31T16:46:41;101548.59;;;13.49;100.00
10064;BME280;5071;52.360;13.134;2022-10-31T16:51:44;101545.97;;;13.45;100.00
10064;BME280;5071;52.360;13.134;2022-10-31T16:56:46;101539.66;;;13.53;100.00
10064;BME280;5071;52.360;13.134;2022-10-31T17:01:48;101546.72;;;13.57;100.00
10064;BME280;5071;52.360;13.134;2022-10-31T17:06:52;101537.91;;;13.51;100.00
10064;BME280;5071;52.360;13.134;2022-10-31T17:11:54;101538.84;;;13.47;100.00
10064;BME280;5071;52.360;13.134;2022-10-31T17:16:56;101528.28;;;13.37;100.00
10064;BME280;5071;52.360;13.134;2022-10-31T17:22:00;101533.59;;;13.39;100.00
10064;BME280;5071;52.360;13.134;2022-10-31T17:27:03;101529.22;;;13.33;100.00
10064;BME280;5071;52.360;13.134;2022-10-31T17:32:05;101532.78;;;13.29;100.00
10064;BME280;5071;52.360;13.134;2022-10-31T17:37:09;101531.16;;;13.14;100.00
10064;BME280;5071;52.360;13.134;2022-10-31T17:42:11;101513.50;;;13.04;100.00
10064;BME280;5071;52.360;13.134;2022-10-31T17:47:13;101518.81;;;13.06;100.00
10064;BME280;5071;52.360;13.134;2022-10-31T17:52:16;101522.38;;;13.05;100.00
10064;BME280;5071;52.360;13.134;2022-10-31T17:57:18;101519.66;;;13.12;100.00
10064;BME280;5071;52.360;13.134;2022-10-31T18:02:20;101519.66;;;13.12;100.00
10064;BME280;5071;52.360;13.134;2022-10-31T18:07:24;101513.63;;;12.92;100.00
10064;BME280;5071;52.360;13.134;2022-10-31T18:12:26;101516.28;;;12.92;100.00
10064;BME280;5071;52.360;13.134;2022-10-31T18:17:29;101510.91;;;12.98;100.00
10064;BME280;5071;52.360;13.134;2022-10-31T18:22:32;101498.38;;;13.06;100.00
10064;BME280;5071;52.360;13.134;2022-10-31T18:27:34;101493.13;;;12.97;100.00
10064;BME280;5071;52.360;13.134;2022-10-31T18:32:37;101489.56;;;12.98;100.00
10064;BME280;5071;52.360;13.134;2022-10-31T18:37:40;101490.47;;;12.97;100.00
10064;BME280;5071;52.360;13.134;2022-10-31T18:42:43;101489.56;;;12.98;100.00
10064;BME280;5071;52.360;13.134;2022-10-31T18:47:44;101490.50;;;12.94;100.00
10064;BME280;5071;52.360;13.134;2022-10-31T18:52:48;101492.16;;;13.04;100.00
10064;BME280;5071;52.360;13.134;2022-10-31T18:57:50;101485.91;;;13.08;100.00
10064;BME280;5071;52.360;13.134;2022-10-31T19:02:52;101495.59;;;13.15;100.00
10064;BME280;5071;52.360;13.134;2022-10-31T19:07:58;101488.16;;;13.48;100.00
10064;BME280;5071;52.360;13.134;2022-10-31T19:13:00;101476.44;;;13.61;100.00
10064;BME280;5071;52.360;13.134;2022-10-31T19:18:02;101460.75;;;13.37;100.00
10064;BME280;5071;52.360;13.134;2022-10-31T19:23:06;101465.47;;;13.10;100.00
10064;BME280;5071;52.360;13.134;2022-10-31T19:28:08;101454.84;;;13.07;100.00
10064;BME280;5071;52.360;13.134;2022-10-31T19:33:11;101451.34;;;13.00;100.00
10064;BME280;5071;52.360;13.134;2022-10-31T19:38:14;101443.41;;;12.96;100.00
10064;BME280;5071;52.360;13.134;2022-10-31T19:43:16;101436.19;;;13.04;100.00
10064;BME280;5071;52.360;13.134;2022-10-31T19:48:18;101429.22;;;12.94;100.00
10064;BME280;5071;52.360;13.134;2022-10-31T19:53:22;101416.78;;;12.93;100.00
10064;BME280;5071;52.360;13.134;2022-10-31T19:58:24;101414.00;;;13.05;100.00
10064;BME280;5071;52.360;13.134;2022-10-31T20:03:26;101413.13;;;13.03;100.00
10064;BME280;5071;52.360;13.134;2022-10-31T20:08:30;101415.78;;;13.03;100.00
10064;BME280;5071;52.360;13.134;2022-10-31T20:13:36;101413.03;;;13.09;100.00
10064;BME280;5071;52.360;13.134;2022-10-31T20:18:38;101414.06;;;12.99;100.00
10064;BME280;5071;52.360;13.134;2022-10-31T20:23:42;101420.22;;;13.02;100.00
10064;BME280;5071;52.360;13.134;2022-10-31T20:28:45;101404.16;;;13.10;100.00
10064;BME280;5071;52.360;13.134;2022-10-31T20:33:48;101395.25;;;13.10;100.00
10064;BME280;5071;52.360;13.134;2022-10-31T20:38:52;101395.34;;;13.05;100.00
10064;BME280;5071;52.360;13.134;2022-10-31T20:43:54;101384.72;;;13.00;100.00
10064;BME280;5071;52.360;13.134;2022-10-31T20:48:56;101381.16;;;13.00;100.00
10064;BME280;5071;52.360;13.134;2022-10-31T20:54:00;101382.09;;;12.97;100.00
10064;BME280;5071;52.360;13.134;2022-10-31T20:59:01;101376.78;;;12.96;100.00
10064;BME280;5071;52.360;13.134;2022-10-31T21:04:04;101371.56;;;12.85;100.00
10064;BME280;5071;52.360;13.134;2022-10-31T21:09:07;101376.13;;;12.78;100.00
10064;BME280;5071;52.360;13.134;2022-10-31T21:14:09;101368.94;;;12.83;100.00
10064;BME280;5071;52.360;13.134;2022-10-31T21:19:12;101372.59;;;12.73;100.00
10064;BME280;5071;52.360;13.134;2022-10-31T21:24:16;101361.97;;;12.70;100.00
10064;BME280;5071;52.360;13.134;2022-10-31T21:29:20;101367.47;;;12.58;100.00
10064;BME280;5071;52.360;13.134;2022-10-31T21:34:22;101346.19;;;12.52;100.00
10064;BME280;5071;52.360;13.134;2022-10-31T21:39:25;101340.94;;;12.45;100.00
10064;BME280;5071;52.360;13.134;2022-10-31T21:44:27;101339.28;;;12.35;100.00
10064;BME280;5071;52.360;13.134;2022-10-31T21:49:29;101341.91;;;12.38;100.00
10064;BME280;5071;52.360;13.134;2022-10-31T21:54:33;101336.56;;;12.38;100.00
10064;BME280;5071;52.360;13.134;2022-10-31T21:59:35;101333.09;;;12.33;100.00
10064;BME280;5071;52.360;13.134;2022-10-31T22:04:37;101340.19;;;12.31;100.00
10064;BME280;5071;52.360;13.134;2022-10-31T22:09:41;101346.50;;;12.24;100.00
10064;BME280;5071;52.360;13.134;2022-10-31T22:14:43;101334.22;;;12.08;100.00
10064;BME280;5071;52.360;13.134;2022-10-31T22:19:45;101320.97;;;12.01;100.00
10064;BME280;5071;52.360;13.134;2022-10-31T22:24:48;101316.53;;;12.03;100.00
10064;BME280;5071;52.360;13.134;2022-10-31T22:29:50;101307.69;;;11.97;100.00
10064;BME280;5071;52.360;13.134;2022-10-31T22:34:57;101293.50;;;11.99;100.00
10064;BME280;5071;52.360;13.134;2022-10-31T22:40:00;101285.53;;;11.98;100.00
10064;BME280;5071;52.360;13.134;2022-10-31T22:45:03;101272.22;;;11.99;100.00
10064;BME280;5071;52.360;13.134;2022-10-31T22:50:05;101273.88;;;12.10;100.00
10064;BME280;5071;52.360;13.134;2022-10-31T22:55:09;101272.88;;;12.20;100.00
10064;BME280;5071;52.360;13.134;2022-10-31T23:00:11;101253.34;;;12.22;100.00
10064;BME280;5071;52.360;13.134;2022-10-31T23:05:13;101252.41;;;12.28;100.00
10064;BME280;5071;52.360;13.134;2022-10-31T23:10:16;101254.13;;;12.32;100.00
10064;BME280;5071;52.360;13.134;2022-10-31T23:15:19;101248.81;;;12.31;100.00
10064;BME280;5071;52.360;13.134;2022-10-31T23:20:20;101250.53;;;12.36;100.00
10064;BME280;5071;52.360;13.134;2022-10-31T23:25:24;101235.38;;;12.43;100.00
10064;BME280;5071;52.360;13.134;2022-10-31T23:30:26;101229.00;;;12.53;100.00
10064;BME280;5071;52.360;13.134;2022-10-31T23:35:28;101230.94;;;12.40;100.00
10064;BME280;5071;52.360;13.134;2022-10-31T23:40:32;101223.97;;;12.33;100.00
10064;BME280;5071;52.360;13.134;2022-10-31T23:45:34;101187.38;;;12.46;100.00
10064;BME280;5071;52.360;13.134;2022-10-31T23:50:37;101178.44;;;12.52;100.00
10064;BME280;5071;52.360;13.134;2022-10-31T23:55:40;101165.06;;;12.56;100.00
